createdAt,value
2019-06-10T00:00:26.935Z,0
2019-06-10T00:01:21.296Z,0
2019-06-10T00:02:18.765Z,0
2019-06-10T00:03:20.611Z,0
2019-06-10T00:04:22.124Z,0
2019-06-10T00:05:18.803Z,0
2019-06-10T00:06:16.826Z,0
2019-06-10T00:07:21.068Z,0
2019-06-10T00:08:20.851Z,0
2019-06-10T00:09:21.057Z,0
2019-06-10T00:10:21.429Z,0
2019-06-10T00:11:21.196Z,0
2019-06-10T00:12:21.029Z,0
2019-06-10T00:13:20.879Z,0
2019-06-10T00:14:18.532Z,0
2019-06-10T00:15:18.656Z,0
2019-06-10T00:16:20.780Z,0
2019-06-10T00:17:21.198Z,0
2019-06-10T00:18:53.555Z,0
2019-06-10T00:19:21.609Z,0
2019-06-10T00:20:21.456Z,0
2019-06-10T00:21:21.218Z,0
2019-06-10T00:22:21.524Z,0
2019-06-10T00:23:21.178Z,0
2019-06-10T00:24:21.004Z,0
2019-06-10T00:25:17.290Z,0
2019-06-10T00:26:21.585Z,0
2019-06-10T00:27:21.554Z,0
2019-06-10T00:28:21.703Z,0
2019-06-10T00:29:22.175Z,0
2019-06-10T00:30:20.795Z,0
2019-06-10T00:31:20.715Z,0
2019-06-10T00:32:21.449Z,0
2019-06-10T00:33:21.575Z,0
2019-06-10T00:34:20.811Z,0
2019-06-10T00:35:21.067Z,0
2019-06-10T00:36:24.246Z,0
2019-06-10T00:37:23.864Z,0
2019-06-10T00:38:24.131Z,0
2019-06-10T00:39:22.111Z,0
2019-06-10T00:40:24.169Z,0
2019-06-10T00:41:24.645Z,0
2019-06-10T00:42:24.096Z,0
2019-06-10T00:43:23.884Z,0
2019-06-10T00:44:20.638Z,0
2019-06-10T00:45:26.880Z,0
2019-06-10T00:46:23.792Z,0
2019-06-10T00:47:23.866Z,0
2019-06-10T00:48:37.676Z,0
2019-06-10T00:49:23.955Z,0
2019-06-10T00:50:24.356Z,0
2019-06-10T00:51:21.110Z,0
2019-06-10T00:52:23.914Z,0
2019-06-10T00:53:23.798Z,0
2019-06-10T00:54:24.562Z,0
2019-06-10T00:55:21.151Z,0
2019-06-10T00:56:21.497Z,0
2019-06-10T00:57:20.875Z,0
2019-06-10T00:58:21.600Z,0
2019-06-10T00:59:21.973Z,0
2019-06-10T01:00:34.477Z,0
2019-06-10T01:01:24.491Z,0
2019-06-10T01:02:21.319Z,0
2019-06-10T01:03:23.457Z,0
2019-06-10T01:04:24.366Z,0
2019-06-10T01:05:20.711Z,0
2019-06-10T01:06:23.887Z,0
2019-06-10T01:07:21.764Z,0
2019-06-10T01:08:21.403Z,0
2019-06-10T01:09:21.817Z,0
2019-06-10T01:10:20.995Z,0
2019-06-10T01:11:33.707Z,0
2019-06-10T01:12:20.970Z,0
2019-06-10T01:13:20.753Z,0
2019-06-10T01:14:18.756Z,0
2019-06-10T01:15:18.889Z,0
2019-06-10T01:16:21.467Z,0
2019-06-10T01:17:23.860Z,0
2019-06-10T01:18:44.323Z,0
2019-06-10T01:19:18.582Z,0
2019-06-10T01:20:21.022Z,0
2019-06-10T01:21:21.786Z,0
2019-06-10T01:22:21.396Z,0
2019-06-10T01:23:21.778Z,0
2019-06-10T01:24:18.249Z,0
2019-06-10T01:25:18.969Z,0
2019-06-10T01:26:24.099Z,0
2019-06-10T01:27:21.167Z,0
2019-06-10T01:28:21.986Z,0
2019-06-10T01:29:20.970Z,0
2019-06-10T01:30:34.018Z,0
2019-06-10T01:31:31.537Z,0
2019-06-10T01:32:17.778Z,0
2019-06-10T01:33:23.930Z,0
2019-06-10T01:34:18.816Z,0
2019-06-10T01:35:21.024Z,0
2019-06-10T01:36:22.995Z,0
2019-06-10T01:37:21.739Z,0
2019-06-10T01:38:21.312Z,0
2019-06-10T01:39:19.098Z,0
2019-06-10T01:40:20.983Z,0
2019-06-10T01:41:23.906Z,0
2019-06-10T01:42:21.572Z,0
2019-06-10T01:43:21.480Z,0
2019-06-10T01:44:21.978Z,0
2019-06-10T01:45:21.315Z,0
2019-06-10T01:46:21.095Z,0
2019-06-10T01:47:21.545Z,0
2019-06-10T01:48:20.925Z,0
2019-06-10T01:49:21.282Z,0
2019-06-10T01:50:21.872Z,0
2019-06-10T01:51:21.065Z,0
2019-06-10T01:52:21.213Z,0
2019-06-10T01:53:21.970Z,0
2019-06-10T01:54:21.265Z,0
2019-06-10T01:55:21.830Z,0
2019-06-10T01:56:21.360Z,0
2019-06-10T01:57:24.620Z,0
2019-06-10T01:58:23.793Z,0
2019-06-10T01:59:21.613Z,0
2019-06-10T02:00:33.756Z,0
2019-06-10T02:01:25.823Z,0
2019-06-10T02:02:23.642Z,0
2019-06-10T02:03:25.814Z,0
2019-06-10T02:04:22.161Z,0
2019-06-10T02:05:24.776Z,0
2019-06-10T02:06:27.062Z,0
2019-06-10T02:07:25.490Z,0
2019-06-10T02:08:24.548Z,0
2019-06-10T02:09:23.222Z,0
2019-06-10T02:10:24.949Z,0
2019-06-10T02:11:25.675Z,0
2019-06-10T02:12:23.987Z,0
2019-06-10T02:13:20.125Z,0
2019-06-10T02:14:24.103Z,0
2019-06-10T02:15:22.580Z,0
2019-06-10T02:16:23.943Z,0
2019-06-10T02:17:23.799Z,0
2019-06-10T02:18:24.984Z,0
2019-06-10T02:19:22.910Z,0
2019-06-10T02:20:22.300Z,0
2019-06-10T02:21:24.243Z,0
2019-06-10T02:22:24.175Z,0
2019-06-10T02:23:21.855Z,0
2019-06-10T02:24:23.029Z,0
2019-06-10T02:25:18.771Z,0
2019-06-10T02:26:23.216Z,0
2019-06-10T02:27:21.829Z,0
2019-06-10T02:28:21.951Z,0
2019-06-10T02:29:21.741Z,0
2019-06-10T02:31:02.499Z,0
2019-06-10T02:31:37.233Z,0
2019-06-10T02:32:37.556Z,0
2019-06-10T02:33:44.514Z,0
2019-06-10T02:34:33.071Z,0
2019-06-10T02:35:53.761Z,0
2019-06-10T02:36:32.465Z,0
2019-06-10T02:37:31.703Z,0
2019-06-10T02:38:32.273Z,0
2019-06-10T02:39:27.871Z,0
2019-06-10T02:40:28.775Z,0
2019-06-10T02:41:31.781Z,0
2019-06-10T02:42:30.066Z,0
2019-06-10T02:43:31.866Z,0
2019-06-10T02:44:29.719Z,0
2019-06-10T02:45:32.261Z,0
2019-06-10T02:46:32.498Z,0
2019-06-10T02:47:33.098Z,0
2019-06-10T02:48:30.035Z,0
2019-06-10T02:50:14.851Z,0
2019-06-10T02:50:44.063Z,0
2019-06-10T02:51:43.558Z,0
2019-06-10T02:52:46.895Z,0
2019-06-10T02:53:43.340Z,0
2019-06-10T02:54:43.800Z,0
2019-06-10T02:55:43.157Z,0
2019-06-10T02:56:44.071Z,0
2019-06-10T02:57:47.676Z,0
2019-06-10T02:58:47.711Z,0
2019-06-10T02:59:43.512Z,0
2019-06-10T03:00:57.277Z,0
2019-06-10T03:01:46.918Z,0
2019-06-10T03:02:44.785Z,0
2019-06-10T03:03:57.020Z,0
2019-06-10T03:04:43.103Z,0
2019-06-10T03:05:49.485Z,0
2019-06-10T03:06:47.556Z,0
2019-06-10T03:07:38.546Z,0
2019-06-10T03:08:43.587Z,0
2019-06-10T03:09:38.509Z,0
2019-06-10T03:10:46.731Z,0
2019-06-10T03:11:44.771Z,0
2019-06-10T03:12:33.056Z,0
2019-06-10T03:13:33.119Z,0
2019-06-10T03:14:32.848Z,0
2019-06-10T03:15:34.764Z,0
2019-06-10T03:16:32.903Z,0
2019-06-10T03:17:32.244Z,0
2019-06-10T03:18:32.809Z,0
2019-06-10T03:19:58.816Z,0
2019-06-10T03:20:32.097Z,0
2019-06-10T03:21:32.404Z,0
2019-06-10T03:22:32.730Z,0
2019-06-10T03:23:34.689Z,0
2019-06-10T03:24:35.392Z,0
2019-06-10T03:25:35.394Z,0
2019-06-10T03:26:34.991Z,0
2019-06-10T03:27:35.457Z,0
2019-06-10T03:28:34.796Z,0
2019-06-10T03:29:35.428Z,0
2019-06-10T03:31:08.000Z,0
2019-06-10T03:31:54.645Z,0
2019-06-10T03:32:49.583Z,0
2019-06-10T03:33:54.189Z,0
2019-06-10T03:38:59.004Z,0
2019-06-10T03:40:16.443Z,0
2019-06-10T03:41:12.415Z,0
2019-06-10T03:42:15.179Z,0
2019-06-10T03:43:11.902Z,0
2019-06-10T03:44:12.928Z,0
2019-06-10T03:45:15.343Z,0
2019-06-10T03:46:13.024Z,0
2019-06-10T03:47:12.116Z,0
2019-06-10T03:48:13.084Z,0
2019-06-10T03:49:12.606Z,0
2019-06-10T03:50:13.179Z,0
2019-06-10T03:51:12.558Z,0
2019-06-10T03:52:12.816Z,0
2019-06-10T03:53:15.686Z,0
2019-06-10T03:54:12.505Z,0
2019-06-10T03:55:12.200Z,0
2019-06-10T03:56:12.926Z,0
2019-06-10T03:57:12.038Z,0
2019-06-10T03:58:12.657Z,0
2019-06-10T03:59:12.195Z,0
2019-06-10T04:00:21.340Z,0
2019-06-10T04:01:12.261Z,0
2019-06-10T04:02:12.824Z,0
2019-06-10T04:03:23.802Z,0
2019-06-10T04:04:13.163Z,0
2019-06-10T04:05:13.239Z,0
2019-06-10T04:06:15.481Z,0
2019-06-10T04:07:14.220Z,0
2019-06-10T04:08:15.119Z,0
2019-06-10T04:09:12.065Z,0
2019-06-10T04:10:15.174Z,0
2019-06-10T04:11:12.145Z,0
2019-06-10T04:12:15.207Z,0
2019-06-10T04:13:13.260Z,0
2019-06-10T04:14:12.778Z,0
2019-06-10T04:15:12.253Z,0
2019-06-10T04:16:15.582Z,0
2019-06-10T04:17:12.930Z,0
2019-06-10T04:18:12.706Z,0
2019-06-10T04:19:12.912Z,0
2019-06-10T04:20:29.420Z,0
2019-06-10T04:21:13.009Z,0
2019-06-10T04:22:10.444Z,0
2019-06-10T04:23:12.099Z,0
2019-06-10T04:24:12.896Z,0
2019-06-10T04:25:12.101Z,0
2019-06-10T04:26:15.297Z,0
2019-06-10T04:27:12.263Z,0
2019-06-10T04:28:12.482Z,0
2019-06-10T04:29:12.514Z,5
2019-06-10T04:30:12.443Z,5
2019-06-10T04:31:12.873Z,5
2019-06-10T04:32:12.212Z,5
2019-06-10T04:33:23.199Z,5
2019-06-10T04:34:12.392Z,5
2019-06-10T04:35:12.755Z,5
2019-06-10T04:36:13.174Z,5
2019-06-10T04:37:12.418Z,5
2019-06-10T04:38:10.404Z,5
2019-06-10T04:39:12.450Z,5
2019-06-10T04:40:13.139Z,5
2019-06-10T04:43:20.320Z,5
2019-06-10T04:43:37.592Z,5
2019-06-10T04:44:38.216Z,5
2019-06-10T04:45:37.607Z,5
2019-06-10T04:46:37.719Z,5
2019-06-10T04:47:38.603Z,5
2019-06-10T04:48:38.058Z,5
2019-06-10T04:49:37.965Z,5
2019-06-10T04:50:55.915Z,5
2019-06-10T04:51:38.008Z,5
2019-06-10T04:52:38.201Z,5
2019-06-10T04:53:40.286Z,5
2019-06-10T04:54:38.486Z,5
2019-06-10T04:55:37.801Z,5
2019-06-10T04:56:38.691Z,5
2019-06-10T04:57:38.040Z,5
2019-06-10T04:58:38.741Z,5
2019-06-10T04:59:38.989Z,5
2019-06-10T05:00:38.384Z,5
2019-06-10T05:01:38.842Z,5
2019-06-10T05:02:38.273Z,5
2019-06-10T05:03:38.325Z,5
2019-06-10T05:04:38.196Z,5
2019-06-10T05:05:37.487Z,5
2019-06-10T05:06:38.019Z,5
2019-06-10T05:07:42.839Z,5
2019-06-10T05:08:38.687Z,5
2019-06-10T05:09:38.802Z,5
2019-06-10T05:10:38.276Z,10
2019-06-10T05:11:38.409Z,10
2019-06-10T05:12:37.984Z,10
2019-06-10T05:13:38.674Z,10
2019-06-10T05:14:38.685Z,10
2019-06-10T05:15:40.108Z,10
2019-06-10T05:16:43.048Z,10
2019-06-10T05:17:43.041Z,10
2019-06-10T05:18:38.533Z,10
2019-06-10T05:19:39.047Z,10
2019-06-10T05:21:05.638Z,10
2019-06-10T05:21:38.975Z,10
2019-06-10T05:22:38.020Z,10
2019-06-10T05:23:35.658Z,10
2019-06-10T05:24:42.458Z,10
2019-06-10T05:25:37.978Z,10
2019-06-10T05:26:38.844Z,10
2019-06-10T05:27:37.663Z,10
2019-06-10T05:28:39.378Z,10
2019-06-10T05:29:39.374Z,10
2019-06-10T05:30:39.387Z,10
2019-06-10T05:31:43.202Z,10
2019-06-10T05:32:38.659Z,10
2019-06-10T05:33:37.963Z,10
2019-06-10T05:34:40.200Z,10
2019-06-10T05:35:39.253Z,10
2019-06-10T05:36:40.034Z,10
2019-06-10T05:37:38.752Z,10
2019-06-10T05:38:43.160Z,10
2019-06-10T05:39:42.258Z,10
2019-06-10T05:40:38.886Z,10
2019-06-10T05:41:43.029Z,10
2019-06-10T05:42:42.558Z,10
2019-06-10T05:43:39.075Z,10
2019-06-10T05:44:39.723Z,10
2019-06-10T05:45:42.303Z,10
2019-06-10T05:46:39.587Z,10
2019-06-10T05:47:42.644Z,10
2019-06-10T05:48:37.527Z,10
2019-06-10T05:49:43.043Z,10
2019-06-10T05:50:37.645Z,15
2019-06-10T05:53:46.520Z,15
2019-06-10T05:53:58.102Z,15
2019-06-10T05:55:02.718Z,15
2019-06-10T05:55:58.176Z,15
2019-06-10T05:56:59.942Z,15
2019-06-10T05:57:58.475Z,15
2019-06-10T05:59:02.159Z,15
2019-06-10T06:00:00.045Z,15
2019-06-10T06:00:58.660Z,15
2019-06-10T06:01:59.176Z,15
2019-06-10T06:03:00.030Z,15
2019-06-10T06:04:03.058Z,15
2019-06-10T06:04:58.346Z,15
2019-06-10T06:06:00.292Z,15
2019-06-10T06:06:58.438Z,15
2019-06-10T06:08:17.939Z,15
2019-06-10T06:08:58.655Z,15
2019-06-10T06:09:58.506Z,15
2019-06-10T06:10:57.998Z,15
2019-06-10T06:12:02.337Z,15
2019-06-10T06:13:02.931Z,15
2019-06-10T06:14:02.524Z,15
2019-06-10T06:14:58.020Z,15
2019-06-10T06:16:03.002Z,15
2019-06-10T06:16:58.627Z,15
2019-06-10T06:18:16.767Z,15
2019-06-10T06:19:00.399Z,15
2019-06-10T06:19:58.725Z,15
2019-06-10T06:21:14.110Z,15
2019-06-10T06:22:02.206Z,15
2019-06-10T06:22:59.963Z,15
2019-06-10T06:23:58.466Z,15
2019-06-10T06:24:59.972Z,15
2019-06-10T06:26:03.594Z,15
2019-06-10T06:26:58.608Z,20
2019-06-10T06:27:57.735Z,20
2019-06-10T06:28:58.733Z,20
2019-06-10T06:30:02.790Z,20
2019-06-10T06:30:58.043Z,20
2019-06-10T06:32:02.543Z,20
2019-06-10T06:32:58.490Z,20
2019-06-10T06:34:02.843Z,20
2019-06-10T06:34:57.955Z,20
2019-06-10T06:36:03.140Z,20
2019-06-10T06:36:58.106Z,20
2019-06-10T06:37:59.319Z,20
2019-06-10T06:38:58.464Z,20
2019-06-10T06:40:02.609Z,20
2019-06-10T06:41:03.144Z,20
2019-06-10T06:41:58.505Z,20
2019-06-10T06:43:02.616Z,20
2019-06-10T06:43:58.415Z,20
2019-06-10T06:45:02.812Z,20
2019-06-10T06:45:58.387Z,20
2019-06-10T06:46:58.521Z,20
2019-06-10T06:48:02.927Z,20
2019-06-10T06:48:58.534Z,20
2019-06-10T06:49:58.344Z,20
2019-06-10T06:51:33.437Z,20
2019-06-10T06:52:08.187Z,20
2019-06-10T06:53:56.415Z,20
2019-06-10T06:54:08.535Z,20
2019-06-10T06:55:10.118Z,20
2019-06-10T06:56:08.817Z,20
2019-06-10T06:57:08.804Z,20
2019-06-10T06:58:08.671Z,20
2019-06-10T06:59:08.243Z,20
2019-06-10T07:01:10.018Z,20
2019-06-10T07:01:34.887Z,20
2019-06-10T07:02:25.352Z,20
2019-06-10T07:03:44.590Z,20
2019-06-10T07:04:26.382Z,20
2019-06-10T07:05:25.550Z,20
2019-06-10T07:06:25.590Z,20
2019-06-10T07:07:24.917Z,25
2019-06-10T07:08:25.450Z,20
2019-06-10T07:09:24.759Z,20
2019-06-10T07:10:25.381Z,20
2019-06-10T07:11:25.120Z,20
2019-06-10T07:12:25.595Z,15
2019-06-10T07:13:24.875Z,15
2019-06-10T07:14:26.508Z,15
2019-06-10T07:15:25.026Z,15
2019-06-10T07:16:25.734Z,15
2019-06-10T07:17:25.666Z,15
2019-06-10T07:18:25.825Z,10
2019-06-10T07:19:39.897Z,10
2019-06-10T07:20:25.594Z,10
2019-06-10T07:21:25.491Z,10
2019-06-10T07:22:28.548Z,10
2019-06-10T07:23:25.272Z,10
2019-06-10T07:24:25.777Z,10
2019-06-10T07:25:25.596Z,10
2019-06-10T07:26:24.874Z,10
2019-06-10T07:27:25.305Z,10
2019-06-10T07:28:25.620Z,10
2019-06-10T07:29:25.298Z,10
2019-06-10T07:30:25.697Z,10
2019-06-10T07:31:43.443Z,10
2019-06-10T07:33:42.793Z,10
2019-06-10T07:34:02.426Z,10
2019-06-10T07:34:57.841Z,10
2019-06-10T07:35:59.370Z,10
2019-06-10T07:36:57.387Z,10
2019-06-10T07:37:57.557Z,10
2019-06-10T07:39:03.463Z,10
2019-06-10T07:39:57.961Z,10
2019-06-10T07:40:58.322Z,10
2019-06-10T07:42:03.010Z,15
2019-06-10T07:42:58.187Z,15
2019-06-10T07:44:02.919Z,15
2019-06-10T07:44:58.382Z,15
2019-06-10T07:46:03.294Z,15
2019-06-10T07:46:58.296Z,15
2019-06-10T07:47:57.558Z,15
2019-06-10T07:49:06.036Z,15
2019-06-10T07:49:57.536Z,15
2019-06-10T07:50:58.402Z,15
2019-06-10T07:52:11.979Z,15
2019-06-10T07:52:58.164Z,15
2019-06-10T07:53:58.054Z,15
2019-06-10T07:54:58.101Z,15
2019-06-10T07:55:58.845Z,15
2019-06-10T07:57:02.370Z,15
2019-06-10T07:57:58.586Z,15
2019-06-10T07:59:02.879Z,15
2019-06-10T07:59:57.525Z,15
2019-06-10T08:01:02.583Z,15
2019-06-10T08:02:05.600Z,20
2019-06-10T08:02:59.226Z,20
2019-06-10T08:03:58.062Z,20
2019-06-10T08:04:59.543Z,20
2019-06-10T08:05:57.894Z,20
2019-06-10T08:06:58.468Z,20
2019-06-10T08:08:05.358Z,20
2019-06-10T08:08:58.619Z,20
2019-06-10T08:09:58.901Z,20
2019-06-10T08:10:58.297Z,20
2019-06-10T08:12:05.318Z,20
2019-06-10T08:13:00.315Z,20
2019-06-10T08:13:59.125Z,20
2019-06-10T08:14:58.598Z,20
2019-06-10T08:15:58.921Z,20
2019-06-10T08:16:58.446Z,20
2019-06-10T08:17:58.512Z,20
2019-06-10T08:19:54.219Z,20
2019-06-10T08:20:09.857Z,20
2019-06-10T08:21:06.036Z,20
2019-06-10T08:22:08.521Z,20
2019-06-10T08:23:12.481Z,20
2019-06-10T08:24:06.149Z,20
2019-06-10T08:25:07.571Z,20
2019-06-10T08:26:12.618Z,20
2019-06-10T08:27:07.872Z,20
2019-06-10T08:28:08.495Z,20
2019-06-10T08:29:07.156Z,20
2019-06-10T08:30:35.605Z,20
2019-06-10T08:31:06.370Z,20
2019-06-10T08:32:08.382Z,20
2019-06-10T08:33:08.651Z,20
2019-06-10T08:34:08.450Z,20
2019-06-10T08:35:07.935Z,20
2019-06-10T08:36:13.499Z,20
2019-06-10T08:37:09.340Z,20
2019-06-10T08:38:07.758Z,20
2019-06-10T08:39:06.032Z,20
2019-06-10T08:40:06.772Z,20
2019-06-10T08:41:08.239Z,20
2019-06-10T08:42:05.874Z,20
2019-06-10T08:43:06.954Z,20
2019-06-10T08:44:07.566Z,20
2019-06-10T08:45:08.733Z,20
2019-06-10T08:46:07.843Z,20
2019-06-10T08:47:05.758Z,20
2019-06-10T08:48:07.849Z,20
2019-06-10T08:49:05.912Z,20
2019-06-10T08:50:07.761Z,20
2019-06-10T08:51:06.650Z,20
2019-06-10T08:52:08.294Z,20
2019-06-10T08:53:28.037Z,20
2019-06-10T08:54:07.683Z,20
2019-06-10T08:55:06.074Z,20
2019-06-10T08:56:07.943Z,20
2019-06-10T08:57:08.069Z,20
2019-06-10T08:58:08.231Z,20
2019-06-10T08:59:05.935Z,20
2019-06-10T09:00:23.211Z,20
2019-06-10T09:01:07.534Z,20
2019-06-10T09:02:08.238Z,20
2019-06-10T09:03:06.741Z,20
2019-06-10T09:04:08.541Z,20
2019-06-10T09:05:06.328Z,20
2019-06-10T09:06:13.167Z,20
2019-06-10T09:07:06.877Z,20
2019-06-10T09:08:07.928Z,20
2019-06-10T09:09:05.903Z,20
2019-06-10T09:10:08.455Z,20
2019-06-10T09:11:08.035Z,20
2019-06-10T09:12:06.343Z,25
2019-06-10T09:13:07.925Z,25
2019-06-10T09:14:07.688Z,25
2019-06-10T09:15:08.788Z,30
2019-06-10T09:16:28.324Z,30
2019-06-10T09:17:08.520Z,30
2019-06-10T09:18:08.665Z,35
2019-06-10T09:19:07.527Z,35
2019-06-10T09:20:08.439Z,35
2019-06-10T09:21:07.606Z,35
2019-06-10T09:22:09.317Z,35
2019-06-10T09:23:35.690Z,30
2019-06-10T09:24:12.855Z,30
2019-06-10T09:25:08.207Z,25
2019-06-10T09:26:12.382Z,25
2019-06-10T09:27:08.161Z,25
2019-06-10T09:28:08.024Z,25
2019-06-10T09:29:08.467Z,25
2019-06-10T09:30:08.725Z,25
2019-06-10T09:31:13.970Z,20
2019-06-10T09:32:07.582Z,20
2019-06-10T09:33:12.961Z,20
2019-06-10T09:34:09.480Z,20
2019-06-10T09:35:12.596Z,25
2019-06-10T09:36:08.325Z,25
2019-06-10T09:37:09.151Z,25
2019-06-10T09:38:08.805Z,25
2019-06-10T09:39:09.203Z,25
2019-06-10T09:40:12.306Z,25
2019-06-10T09:41:16.905Z,25
2019-06-10T09:42:17.137Z,25
2019-06-10T09:43:07.799Z,25
2019-06-10T09:44:08.629Z,30
2019-06-10T09:45:07.829Z,30
2019-06-10T09:46:09.266Z,30
2019-06-10T09:47:08.891Z,30
2019-06-10T09:48:13.069Z,30
2019-06-10T09:49:07.393Z,30
2019-06-10T09:50:08.537Z,30
2019-06-10T09:51:12.427Z,30
2019-06-10T09:52:13.433Z,30
2019-06-10T09:53:09.294Z,30
2019-06-10T09:54:18.022Z,30
2019-06-10T09:55:08.409Z,30
2019-06-10T09:56:09.194Z,30
2019-06-10T09:57:07.781Z,30
2019-06-10T09:58:12.245Z,30
2019-06-10T09:59:08.461Z,30
2019-06-10T10:00:09.424Z,25
2019-06-10T10:01:13.229Z,25
2019-06-10T10:02:15.218Z,30
2019-06-10T10:03:08.662Z,30
2019-06-10T10:04:12.370Z,30
2019-06-10T10:05:09.177Z,30
2019-06-10T10:06:26.302Z,35
2019-06-10T10:07:08.398Z,35
2019-06-10T10:08:08.047Z,35
2019-06-10T10:09:11.934Z,35
2019-06-10T10:10:12.831Z,35
2019-06-10T10:11:09.323Z,35
2019-06-10T10:12:08.276Z,35
2019-06-10T10:13:08.001Z,35
2019-06-10T10:14:15.886Z,35
2019-06-10T10:15:39.250Z,35
2019-06-10T10:16:08.324Z,35
2019-06-10T10:17:15.384Z,35
2019-06-10T10:18:07.781Z,40
2019-06-10T10:19:15.615Z,55
2019-06-10T10:20:08.543Z,55
2019-06-10T10:21:13.007Z,70
2019-06-10T10:22:14.200Z,80
2019-06-10T10:23:07.961Z,90
2019-06-10T10:24:22.980Z,100
2019-06-10T10:25:08.298Z,85
2019-06-10T10:26:08.705Z,65
2019-06-10T10:27:16.180Z,70
2019-06-10T10:28:13.277Z,55
2019-06-10T10:29:12.848Z,55
2019-06-10T10:30:09.097Z,60
2019-06-10T10:31:09.715Z,55
2019-06-10T10:32:07.876Z,50
2019-06-10T10:33:09.072Z,45
2019-06-10T10:34:08.732Z,45
2019-06-10T10:35:09.125Z,45
2019-06-10T10:36:07.904Z,45
2019-06-10T10:37:08.164Z,45
2019-06-10T10:38:08.967Z,45
2019-06-10T10:39:08.306Z,45
2019-06-10T10:40:08.963Z,55
2019-06-10T10:41:15.936Z,75
2019-06-10T10:42:09.092Z,85
2019-06-10T10:43:47.416Z,90
2019-06-10T10:44:13.516Z,85
2019-06-10T10:45:13.258Z,90
2019-06-10T10:46:16.481Z,90
2019-06-10T10:47:09.799Z,75
2019-06-10T10:48:13.571Z,80
2019-06-10T10:49:09.534Z,65
2019-06-10T11:04:06.304Z,70
2019-06-10T11:04:18.594Z,65
2019-06-10T11:05:18.645Z,60
2019-06-10T11:06:23.072Z,60
2019-06-10T11:07:18.276Z,65
2019-06-10T11:08:22.750Z,55
2019-06-10T11:09:18.575Z,50
2019-06-10T11:10:18.054Z,55
2019-06-10T11:11:22.998Z,55
2019-06-10T11:12:17.269Z,55
2019-06-10T11:13:18.015Z,70
2019-06-10T11:14:22.859Z,65
2019-06-10T11:15:19.338Z,55
2019-06-10T11:16:17.258Z,55
2019-06-10T11:17:22.679Z,45
2019-06-10T11:18:22.330Z,45
2019-06-10T11:19:18.240Z,45
2019-06-10T11:20:18.858Z,50
2019-06-10T11:21:22.692Z,50
2019-06-10T11:22:17.867Z,60
2019-06-10T11:23:22.635Z,60
2019-06-10T11:24:41.921Z,80
2019-06-10T11:25:17.885Z,75
2019-06-10T11:26:22.212Z,90
2019-06-10T11:27:22.693Z,95
2019-06-10T11:28:17.393Z,90
2019-06-10T11:29:17.322Z,80
2019-06-10T11:30:17.615Z,75
2019-06-10T11:31:19.090Z,90
2019-06-10T11:32:17.366Z,85
2019-06-10T11:33:18.559Z,75
2019-06-10T11:34:19.725Z,65
2019-06-10T11:35:19.960Z,65
2019-06-10T11:36:18.842Z,75
2019-06-10T11:37:17.992Z,80
2019-06-10T11:38:18.161Z,75
2019-06-10T11:39:18.916Z,70
2019-06-10T11:40:18.814Z,80
2019-06-10T11:41:23.469Z,85
2019-06-10T11:42:18.516Z,85
2019-06-10T11:43:18.433Z,85
2019-06-10T11:44:17.353Z,85
2019-06-10T11:45:17.732Z,85
2019-06-10T11:46:21.614Z,80
2019-06-10T11:47:18.485Z,85
2019-06-10T11:48:18.261Z,85
2019-06-10T11:49:17.884Z,85
2019-06-10T11:50:19.874Z,85
2019-06-10T11:51:18.931Z,85
2019-06-10T11:52:17.878Z,85
2019-06-10T11:53:22.799Z,90
2019-06-10T11:54:18.139Z,85
2019-06-10T11:55:29.205Z,90
2019-06-10T11:56:18.414Z,90
2019-06-10T11:57:18.194Z,90
2019-06-10T11:58:17.390Z,80
2019-06-10T11:59:21.390Z,90
2019-06-10T12:00:28.476Z,50
2019-06-10T12:01:22.837Z,40
2019-06-10T12:02:18.576Z,40
2019-06-10T12:03:18.709Z,100
2019-06-10T12:04:18.150Z,100
2019-06-10T12:05:23.390Z,60
2019-06-10T12:06:18.910Z,95
2019-06-10T12:07:18.170Z,25
2019-06-10T12:08:18.354Z,25
2019-06-10T12:09:20.173Z,25
2019-06-10T12:10:18.078Z,30
2019-06-10T12:11:22.821Z,90
2019-06-10T12:12:18.736Z,90
2019-06-10T12:13:18.620Z,90
2019-06-10T12:14:18.148Z,90
2019-06-10T12:15:22.502Z,45
2019-06-10T12:18:08.761Z,85
2019-06-10T12:18:22.865Z,85
2019-06-10T12:19:25.644Z,85
2019-06-10T12:20:28.455Z,85
2019-06-10T12:21:26.219Z,85
2019-06-10T12:22:22.664Z,80
2019-06-10T12:23:24.844Z,65
2019-06-10T12:24:25.673Z,75
2019-06-10T12:25:54.181Z,90
2019-06-10T12:26:22.500Z,85
2019-06-10T12:27:21.332Z,90
2019-06-10T12:28:23.690Z,75
2019-06-10T12:29:25.187Z,80
2019-06-10T12:30:22.423Z,80
2019-06-10T12:31:25.857Z,90
2019-06-10T12:32:22.483Z,55
2019-06-10T12:33:36.109Z,40
2019-06-10T12:40:49.647Z,65
2019-06-10T12:41:16.352Z,40
2019-06-10T12:42:14.489Z,45
2019-06-10T12:43:12.595Z,60
2019-06-10T12:44:06.889Z,65
2019-06-10T12:45:12.232Z,60
2019-06-10T12:46:06.792Z,40
2019-06-10T12:47:12.779Z,30
2019-06-10T12:48:09.352Z,25
2019-06-10T12:49:18.371Z,25
2019-06-10T12:50:08.976Z,25
2019-06-10T12:51:12.713Z,25
2019-06-10T12:52:12.365Z,25
2019-06-10T12:53:15.020Z,25
2019-06-10T12:54:07.321Z,30
2019-06-10T12:55:02.429Z,30
2019-06-10T12:56:14.846Z,35
2019-06-10T12:57:09.268Z,35
2019-06-10T12:58:08.377Z,35
2019-06-10T12:59:13.518Z,35
2019-06-10T13:00:20.161Z,35
2019-06-10T13:01:08.624Z,35
2019-06-10T13:02:30.638Z,35
2019-06-10T13:03:04.026Z,35
2019-06-10T13:04:19.197Z,35
2019-06-10T13:05:08.653Z,35
2019-06-10T13:06:09.869Z,35
2019-06-10T13:07:09.429Z,30
2019-06-10T13:08:07.656Z,30
2019-06-10T13:09:06.318Z,25
2019-06-10T13:10:05.270Z,20
2019-06-10T13:11:08.181Z,20
2019-06-10T13:12:04.996Z,20
2019-06-10T13:13:10.443Z,20
2019-06-10T13:14:06.429Z,20
2019-06-10T13:15:09.587Z,20
2019-06-10T13:16:13.957Z,20
2019-06-10T13:17:08.403Z,20
2019-06-10T13:18:14.462Z,20
2019-06-10T13:19:07.950Z,20
2019-06-10T13:20:05.797Z,20
2019-06-10T13:21:17.679Z,20
2019-06-10T13:22:08.767Z,25
2019-06-10T13:23:13.763Z,30
2019-06-10T13:24:06.325Z,40
2019-06-10T13:25:05.373Z,30
2019-06-10T13:26:22.977Z,30
2019-06-10T13:27:07.865Z,30
2019-06-10T13:28:08.279Z,25
2019-06-10T13:29:10.262Z,20
2019-06-10T13:30:02.775Z,20
2019-06-10T13:34:22.124Z,20
2019-06-10T13:35:34.807Z,20
2019-06-10T13:36:38.366Z,20
2019-06-10T13:37:34.791Z,20
2019-06-10T13:38:38.466Z,20
2019-06-10T13:39:37.709Z,20
2019-06-10T13:40:34.709Z,20
2019-06-10T13:41:35.983Z,20
2019-06-10T13:42:39.255Z,20
2019-06-10T13:43:36.487Z,20
2019-06-10T13:44:34.846Z,25
2019-06-10T13:45:38.696Z,30
2019-06-10T13:46:42.495Z,35
2019-06-10T13:47:38.950Z,50
2019-06-10T13:48:37.365Z,80
2019-06-10T13:49:38.331Z,85
2019-06-10T13:50:38.072Z,90
2019-06-10T13:51:37.982Z,35
2019-06-10T13:52:34.797Z,30
2019-06-10T13:53:33.554Z,30
2019-06-10T13:54:33.254Z,70
2019-06-10T13:55:35.589Z,65
2019-06-10T13:56:59.033Z,70
2019-06-10T13:57:34.843Z,70
2019-06-10T13:58:33.566Z,65
2019-06-10T13:59:33.504Z,70
2019-06-10T14:00:56.373Z,70
2019-06-10T14:01:37.590Z,70
2019-06-10T14:02:37.578Z,70
2019-06-10T14:03:35.360Z,45
2019-06-10T14:04:39.623Z,35
2019-06-10T14:05:36.985Z,55
2019-06-10T14:07:04.829Z,65
2019-06-10T14:07:35.090Z,40
2019-06-10T14:08:35.242Z,25
2019-06-10T14:09:35.662Z,20
2019-06-10T14:10:35.191Z,20
2019-06-10T14:11:42.445Z,20
2019-06-10T14:12:35.160Z,20
2019-06-10T14:13:35.313Z,20
2019-06-10T14:14:35.898Z,20
2019-06-10T14:15:36.784Z,20
2019-06-10T14:16:36.428Z,20
2019-06-10T14:17:36.584Z,15
2019-06-10T14:18:36.022Z,20
2019-06-10T14:19:35.150Z,20
2019-06-10T14:20:36.699Z,20
2019-06-10T14:21:35.799Z,20
2019-06-10T14:22:35.551Z,20
2019-06-10T14:23:36.100Z,20
2019-06-10T14:24:36.432Z,20
2019-06-10T14:25:35.723Z,20
2019-06-10T14:26:55.700Z,20
2019-06-10T14:27:36.259Z,20
2019-06-10T14:28:55.075Z,20
2019-06-10T14:29:33.532Z,20
2019-06-10T14:34:25.348Z,10
2019-06-10T14:35:38.697Z,10
2019-06-10T14:36:37.758Z,10
2019-06-10T14:37:53.299Z,10
2019-06-10T14:38:38.152Z,10
2019-06-10T14:39:38.518Z,10
2019-06-10T14:40:37.711Z,15
2019-06-10T14:41:37.920Z,15
2019-06-10T14:42:37.579Z,15
2019-06-10T14:43:38.566Z,15
2019-06-10T14:44:42.093Z,10
2019-06-10T14:45:38.290Z,10
2019-06-10T14:46:38.218Z,15
2019-06-10T14:47:37.714Z,15
2019-06-10T14:48:38.824Z,15
2019-06-10T14:49:38.351Z,15
2019-06-10T14:50:37.900Z,15
2019-06-10T14:51:38.290Z,15
2019-06-10T14:54:45.497Z,15
2019-06-10T14:55:02.556Z,15
2019-06-10T14:55:58.722Z,15
2019-06-10T14:57:07.885Z,15
2019-06-10T14:57:58.531Z,15
2019-06-10T14:58:58.231Z,10
2019-06-10T14:59:58.461Z,10
2019-06-10T15:01:00.013Z,10
2019-06-10T15:01:57.375Z,10
2019-06-10T15:03:01.667Z,10
2019-06-10T15:03:57.593Z,10